< < Back
Terminal Aerodrome Forecast


Current Version              Previous Versions:   1  2  3  4  5  6  7  8  9  

Terminal Aerodrome Forecast

938
FTUS42 KJAX 252320
TAFSSI
TAF
KSSI 252320Z 2600/2624 14008KT P6SM FEW250
     FM260600 15004KT P6SM FEW250
     FM261500 11011KT P6SM FEW040=



Latest METAR

685
SAUS70 KWBC 260200 RRE
MTRSSI
METAR KSSI 260153Z AUTO 14007KT 10SM CLR 24/19 A3020 RMK AO2 SLP228
T02440189


USA.gov is the U.S. government's official web portal to all federal, state and local government web resources and services.